Time;durP1;ratioP1;P1;durP2;ratioP2;P2;SDS_P1;SDS_P2;PMS_P1;PMS_P2;Temp;Humidity;BMP_temperature;BMP_pressure;BME280_temperature;BME280_humidity;BME280_pressure;Samples;Min_cycle;Max_cycle;Signal;HPM_P1;HPM_P2
2022/07/23 00:00:07;;;;;;;8.10;5.10;;;;;;;18.43;63.01;101143.62;107683;1244;57978;-74
2022/07/23 00:02:56;;;;;;;7.20;5.10;;;;;;;18.38;63.32;101143.11;107850;1244;63158;-74
2022/07/23 00:05:24;;;;;;;8.60;5.10;;;;;;;18.41;63.29;101141.00;107680;1244;75062;-73
2022/07/23 00:07:53;;;;;;;7.10;5.40;;;;;;;18.53;62.71;101137.55;107718;1246;62161;-73
2022/07/23 00:10:22;;;;;;;8.10;5.50;;;;;;;18.58;62.47;101143.38;107798;1244;59872;-75
2022/07/23 00:12:51;;;;;;;9.10;5.10;;;;;;;18.59;62.56;101142.27;107946;1244;72873;-76
2022/07/23 00:15:20;;;;;;;8.50;5.70;;;;;;;18.55;62.69;101140.33;107960;1244;62023;-74
2022/07/23 00:17:48;;;;;;;11.50;5.70;;;;;;;18.51;62.77;101132.62;107881;1243;61641;-74
2022/07/23 00:20:18;;;;;;;10.50;5.80;;;;;;;18.47;62.83;101133.51;107933;1244;63719;-74
2022/07/23 00:22:53;;;;;;;10.30;5.40;;;;;;;18.41;63.19;101130.81;107810;1244;72223;-73
2022/07/23 00:25:23;;;;;;;9.70;5.60;;;;;;;18.34;63.36;101128.19;107539;1244;71060;-71
2022/07/23 00:28:00;;;;;;;7.40;4.70;;;;;;;18.24;63.91;101128.80;107787;1243;73556;-73
2022/07/23 00:30:31;;;;;;;10.50;5.50;;;;;;;18.17;62.95;101125.73;107803;1244;59472;-74
2022/07/23 00:33:04;;;;;;;9.90;5.60;;;;;;;18.07;63.09;101126.80;107767;1245;59581;-73
2022/07/23 00:35:40;;;;;;;6.50;5.00;;;;;;;17.91;64.65;101124.95;107778;1244;74420;-71
2022/07/23 00:38:11;;;;;;;9.00;5.50;;;;;;;17.82;65.16;101121.75;107637;1247;71460;-73
2022/07/23 00:40:40;;;;;;;10.30;5.50;;;;;;;17.74;64.33;101124.79;107812;1244;68708;-72
2022/07/23 00:43:08;;;;;;;11.90;5.10;;;;;;;17.64;65.80;101120.67;107796;1243;73392;-70
2022/07/23 00:45:37;;;;;;;8.20;4.90;;;;;;;17.69;65.79;101119.31;107731;1244;62060;-71
2022/07/23 00:48:06;;;;;;;9.90;5.10;;;;;;;17.74;65.22;101122.58;107741;1244;61125;-71
2022/07/23 00:50:35;;;;;;;10.90;5.30;;;;;;;17.71;65.37;101119.60;107669;1244;72269;-72
2022/07/23 00:53:05;;;;;;;13.80;5.50;;;;;;;17.67;65.31;101118.26;107441;1244;71487;-72
2022/07/23 00:55:34;;;;;;;8.50;4.90;;;;;;;17.61;66.02;101122.69;107385;1244;71329;-73
2022/07/23 00:58:02;;;;;;;7.00;5.40;;;;;;;17.55;66.28;101123.61;107503;1244;74277;-74
2022/07/23 01:00:31;;;;;;;9.20;5.10;;;;;;;17.50;65.91;101126.08;107602;1244;61091;-73
2022/07/23 01:03:00;;;;;;;8.30;5.20;;;;;;;17.45;65.17;101130.54;107751;1244;59504;-73
2022/07/23 01:05:29;;;;;;;9.50;5.20;;;;;;;17.39;64.43;101131.62;107726;1244;73629;-74
2022/07/23 01:07:58;;;;;;;10.10;5.60;;;;;;;17.31;66.55;101130.68;107849;1244;71916;-69
2022/07/23 01:10:32;;;;;;;12.40;5.30;;;;;;;17.48;66.47;101128.14;107778;1244;69658;-72
2022/07/23 01:13:09;;;;;;;6.80;5.00;;;;;;;17.65;65.85;101130.54;107742;1244;73328;-74
2022/07/23 01:15:39;;;;;;;6.60;5.00;;;;;;;17.67;65.51;101133.36;107217;1246;732625;-72
2022/07/23 01:18:09;;;;;;;9.60;5.60;;;;;;;17.68;65.85;101133.64;107680;1244;61737;-75
2022/07/23 01:20:39;;;;;;;10.50;5.30;;;;;;;17.65;65.90;101134.45;107702;1244;75293;-73
2022/07/23 01:23:09;;;;;;;9.00;5.50;;;;;;;17.75;65.31;101130.77;107875;1244;72446;-70
2022/07/23 01:25:52;;;;;;;13.10;6.80;;;;;;;17.86;64.68;101131.23;107882;1243;59600;-74
2022/07/23 01:28:21;;;;;;;9.70;5.40;;;;;;;17.93;64.19;101136.91;107861;1245;63269;-74
2022/07/23 01:30:51;;;;;;;13.60;5.90;;;;;;;17.92;64.25;101139.33;107826;1244;60812;-76
2022/07/23 01:33:19;;;;;;;12.10;6.30;;;;;;;17.89;64.51;101135.40;107901;1244;60641;-74
2022/07/23 01:35:48;;;;;;;10.30;5.30;;;;;;;17.92;64.45;101137.02;107912;1244;64294;-73
2022/07/23 01:38:22;;;;;;;10.50;5.50;;;;;;;17.89;64.63;101139.06;107931;1244;70459;-71
2022/07/23 01:40:50;;;;;;;7.50;5.60;;;;;;;17.82;64.94;101139.36;107823;1244;70932;-74
2022/07/23 01:43:28;;;;;;;10.80;6.20;;;;;;;17.70;65.28;101137.66;107977;1244;73804;-71
2022/07/23 01:45:56;;;;;;;10.10;5.70;;;;;;;17.60;65.39;101135.63;107840;1244;61831;-70
2022/07/23 01:48:28;;;;;;;10.70;5.90;;;;;;;17.46;65.92;101133.81;107685;1246;59634;-72
2022/07/23 01:52:02;;;;;;;13.00;5.60;;;;;;;17.30;67.17;101134.44;107651;1244;74863;-69
2022/07/23 01:54:45;;;;;;;8.30;5.20;;;;;;;17.25;67.30;101136.67;107575;1244;71873;-75
2022/07/23 01:57:14;;;;;;;10.10;5.20;;;;;;;17.22;66.68;101138.88;107742;1244;69622;-74
2022/07/23 01:59:43;;;;;;;9.50;5.70;;;;;;;17.19;66.65;101139.36;107570;1244;74335;-72
2022/07/23 02:02:11;;;;;;;12.90;5.40;;;;;;;17.13;66.24;101137.66;107740;1244;61555;-74
2022/07/23 02:04:40;;;;;;;9.50;5.50;;;;;;;16.98;67.37;101130.40;107748;1244;62101;-77
2022/07/23 02:07:09;;;;;;;9.30;5.20;;;;;;;17.02;68.17;101138.35;107909;1244;74274;-76
2022/07/23 02:09:38;;;;;;;9.30;5.80;;;;;;;17.18;67.47;101138.92;107857;1244;71803;-75
2022/07/23 02:12:07;;;;;;;11.80;5.50;;;;;;;17.41;66.54;101139.20;107545;1244;70147;-73
2022/07/23 02:14:35;;;;;;;8.90;5.60;;;;;;;17.50;66.26;101137.64;107609;1244;73988;-69
2022/07/23 02:17:06;;;;;;;10.60;6.10;;;;;;;17.41;66.63;101137.48;107579;1244;60483;-69
2022/07/23 02:19:36;;;;;;;9.30;5.90;;;;;;;17.31;66.78;101144.05;107836;1244;60014;-70
2022/07/23 02:22:05;;;;;;;12.20;6.00;;;;;;;17.18;67.43;101143.16;107859;1244;74429;-76
2022/07/23 02:24:34;;;;;;;9.70;6.00;;;;;;;17.08;67.85;101141.58;107922;1243;72605;-75
2022/07/23 02:27:02;;;;;;;11.80;6.10;;;;;;;17.00;68.19;101139.04;107972;1242;70501;-71
2022/07/23 02:29:33;;;;;;;8.20;5.80;;;;;;;16.99;68.47;101134.94;107688;1244;73620;-75
2022/07/23 02:32:01;;;;;;;9.30;5.70;;;;;;;17.07;67.96;101135.40;107844;1244;61554;-73
2022/07/23 02:34:30;;;;;;;10.40;5.10;;;;;;;17.19;67.45;101138.95;107728;1245;59653;-75
2022/07/23 02:36:59;;;;;;;9.10;5.80;;;;;;;17.20;67.52;101135.91;107703;1246;71907;-75
2022/07/23 02:39:28;;;;;;;13.50;6.00;;;;;;;17.25;67.41;101140.08;107737;1245;69598;-74
2022/07/23 02:41:57;;;;;;;10.20;5.90;;;;;;;17.13;67.04;101136.67;107994;1243;67896;-75
2022/07/23 02:44:26;;;;;;;13.00;6.20;;;;;;;17.02;67.57;101141.63;107934;1244;70968;-73
2022/07/23 02:46:55;;;;;;;10.50;5.30;;;;;;;16.90;68.67;101141.54;107799;1244;60569;-74
2022/07/23 02:49:24;;;;;;;13.40;6.00;;;;;;;16.94;68.56;101143.11;107748;1244;61170;-73
2022/07/23 02:51:53;;;;;;;11.40;5.70;;;;;;;17.04;68.16;101147.29;107608;1247;72598;-73
2022/07/23 02:54:22;;;;;;;11.20;6.10;;;;;;;17.04;68.10;101147.26;107839;1244;69670;-71
2022/07/23 02:56:52;;;;;;;10.60;5.70;;;;;;;17.00;68.35;101149.08;107679;1246;69156;-72
2022/07/23 02:59:21;;;;;;;8.80;6.00;;;;;;;16.96;68.34;101154.72;107581;1244;72913;-73
2022/07/23 03:01:50;;;;;;;10.60;5.80;;;;;;;16.98;68.64;101154.89;107622;1244;62788;-72
2022/07/23 03:04:19;;;;;;;10.30;6.20;;;;;;;16.93;68.64;101157.09;107937;1244;60836;-71
2022/07/23 03:06:48;;;;;;;16.30;6.10;;;;;;;16.87;68.99;101158.67;107900;1244;75046;-72
2022/07/23 03:09:16;;;;;;;13.30;6.30;;;;;;;16.83;69.22;101164.88;107975;1244;72656;-72
2022/07/23 03:11:45;;;;;;;12.60;6.30;;;;;;;16.80;69.24;101164.65;107845;1244;69495;-74
2022/07/23 03:14:16;;;;;;;9.70;6.10;;;;;;;16.75;69.30;101166.14;107731;1247;71184;-72
2022/07/23 03:16:44;;;;;;;11.30;6.10;;;;;;;16.76;68.55;101166.96;107906;1244;62996;-71
2022/07/23 03:19:13;;;;;;;9.40;6.20;;;;;;;16.76;68.76;101166.92;107969;1243;60747;-68
2022/07/23 03:21:42;;;;;;;12.50;7.10;;;;;;;16.79;69.26;101172.30;107843;1245;74653;-71
2022/07/23 03:24:13;;;;;;;25.20;9.70;;;;;;;16.87;68.88;101177.80;107969;1243;71483;-71
2022/07/23 03:26:41;;;;;;;12.20;6.50;;;;;;;16.92;68.86;101174.04;107931;1244;71500;-68
2022/07/23 03:29:10;;;;;;;13.50;7.30;;;;;;;16.99;69.12;101170.30;107836;1244;72037;-72
2022/07/23 03:31:39;;;;;;;13.10;5.80;;;;;;;17.10;68.66;101169.20;107869;1244;59609;-73
2022/07/23 03:34:08;;;;;;;11.80;6.40;;;;;;;17.26;68.31;101170.73;107970;1244;62284;-69
2022/07/23 03:36:37;;;;;;;14.40;6.30;;;;;;;17.30;68.22;101172.66;107615;1247;73214;-74
2022/07/23 03:39:06;;;;;;;11.40;6.50;;;;;;;17.29;68.10;101167.96;107906;1244;70557;-74
2022/07/23 03:41:41;;;;;;;12.10;6.70;;;;;;;17.29;67.93;101168.56;107971;1244;69673;-74
2022/07/23 03:44:11;;;;;;;13.90;6.20;;;;;;;17.33;67.97;101172.70;107655;1244;71606;-73
2022/07/23 03:46:40;;;;;;;8.20;5.80;;;;;;;17.37;67.00;101171.02;107720;1244;59632;-74
2022/07/23 03:49:09;;;;;;;14.00;6.40;;;;;;;17.37;66.68;101170.42;107920;1244;61184;-76
2022/07/23 03:51:37;;;;;;;12.50;6.20;;;;;;;17.40;66.31;101165.55;107543;1244;74005;-76
2022/07/23 03:54:06;;;;;;;13.50;6.70;;;;;;;17.45;66.49;101173.30;107750;1244;72018;-75
2022/07/23 03:56:36;;;;;;;16.50;6.90;;;;;;;17.55;66.34;101176.80;107688;1246;68749;-76
2022/07/23 03:59:05;;;;;;;12.40;7.10;;;;;;;17.73;66.27;101171.90;107442;1244;71832;-73
2022/07/23 04:01:34;;;;;;;15.60;7.40;;;;;;;18.06;65.22;101164.93;107636;1244;60563;-76
2022/07/23 04:04:03;;;;;;;11.60;6.60;;;;;;;18.30;64.03;101162.23;107523;1245;57999;-75
2022/07/23 04:06:32;;;;;;;16.10;7.00;;;;;;;18.40;63.60;101162.83;107814;1244;74551;-75
2022/07/23 04:09:03;;;;;;;11.80;7.30;;;;;;;18.51;63.08;101164.06;107595;1245;61117;-76
2022/07/23 04:11:33;;;;;;;14.20;6.50;;;;;;;18.60;62.56;101162.27;107622;1244;69765;-73
2022/07/23 04:14:03;;;;;;;11.70;6.60;;;;;;;18.78;61.94;101163.98;107512;1244;63685;-72
2022/07/23 04:16:32;;;;;;;10.80;7.60;;;;;;;18.88;61.65;101162.16;107584;1244;61402;-72
2022/07/23 04:19:01;;;;;;;15.80;7.70;;;;;;;18.95;61.00;101161.73;107469;1244;61488;-70
2022/07/23 04:21:40;;;;;;;14.30;7.00;;;;;;;19.03;60.85;101164.89;107711;1244;63487;-72
2022/07/23 04:24:09;;;;;;;16.40;6.70;;;;;;;19.11;60.46;101165.83;107570;1245;71580;-70
2022/07/23 04:26:38;;;;;;;15.10;6.80;;;;;;;19.24;59.79;101164.79;107497;1244;72040;-69
2022/07/23 04:29:07;;;;;;;12.80;6.60;;;;;;;19.38;59.55;101165.77;107642;1244;63530;-69
2022/07/23 04:31:36;;;;;;;10.20;7.20;;;;;;;19.53;58.86;101164.46;107633;1246;59099;-69
2022/07/23 04:34:06;;;;;;;17.20;8.20;;;;;;;19.68;58.35;101162.77;107714;1244;59573;-70
2022/07/23 04:36:35;;;;;;;20.80;7.20;;;;;;;19.77;58.33;101162.40;107441;1244;74505;-71
2022/07/23 04:39:04;;;;;;;12.40;7.30;;;;;;;19.90;58.11;101160.83;107407;1247;63130;-70
2022/07/23 04:41:34;;;;;;;12.90;7.10;;;;;;;20.03;58.09;101161.27;107661;1244;69749;-71
2022/07/23 04:44:04;;;;;;;9.70;6.60;;;;;;;20.09;57.53;101159.23;107868;1244;63973;-71
2022/07/23 04:46:33;;;;;;;14.60;7.00;;;;;;;20.15;57.30;101156.23;107691;1244;61224;-69
2022/07/23 04:49:02;;;;;;;12.90;7.00;;;;;;;20.28;56.64;101156.98;108003;1244;59499;-69
2022/07/23 04:51:33;;;;;;;12.40;6.50;;;;;;;20.43;55.90;101156.52;107868;1244;63762;-70
2022/07/23 04:54:02;;;;;;;10.00;6.50;;;;;;;20.56;55.18;101155.98;107678;1244;71612;-71
2022/07/23 04:56:31;;;;;;;15.40;8.10;;;;;;;20.73;54.43;101151.34;107684;1244;69273;-69
2022/07/23 04:59:00;;;;;;;14.90;7.40;;;;;;;20.89;53.92;101148.81;107791;1244;62337;-73
2022/07/23 05:01:30;;;;;;;14.20;7.10;;;;;;;21.02;53.31;101148.89;107771;1244;61349;-70
2022/07/23 05:03:59;;;;;;;12.30;7.00;;;;;;;21.09;52.94;101145.04;107559;1244;59713;-71
2022/07/23 05:06:30;;;;;;;12.20;6.60;;;;;;;21.23;53.29;101147.92;107809;1244;73622;-69
2022/07/23 05:08:59;;;;;;;16.10;6.90;;;;;;;21.35;53.17;101152.11;107728;1244;72763;-72
2022/07/23 05:11:30;;;;;;;15.60;6.40;;;;;;;21.48;52.65;101152.31;107769;1247;59750;-71
2022/07/23 05:13:59;;;;;;;15.20;7.10;;;;;;;21.60;52.51;101149.70;107676;1244;74250;-71
2022/07/23 05:16:30;;;;;;;10.70;7.00;;;;;;;21.72;51.63;101151.71;107910;1244;61093;-73
2022/07/23 05:19:02;;;;;;;;;;;;;;;21.83;51.78;101150.67;107937;1244;60081;-72
2022/07/23 05:21:33;;;;;;;12.90;7.20;;;;;;;21.95;51.75;101151.17;107907;1244;63843;-72
2022/07/23 05:24:02;;;;;;;12.30;7.00;;;;;;;22.08;51.26;101153.43;107763;1243;72648;-72
2022/07/23 05:26:31;;;;;;;13.30;7.40;;;;;;;22.16;51.38;101152.55;107852;1244;70343;-72
2022/07/23 05:28:59;;;;;;;10.70;6.40;;;;;;;22.26;50.63;101150.17;107501;1244;74324;-71
2022/07/23 05:31:28;;;;;;;15.40;7.60;;;;;;;22.38;50.63;101152.34;107713;1244;59890;-74
2022/07/23 05:33:58;;;;;;;14.80;6.80;;;;;;;22.50;50.19;101151.10;107866;1244;59474;-71
2022/07/23 05:36:27;;;;;;;12.20;6.90;;;;;;;22.61;49.41;101154.48;107903;1244;64108;-71
2022/07/23 05:38:58;;;;;;;11.50;6.80;;;;;;;22.67;49.31;101154.42;107748;1244;62556;-74
2022/07/23 05:41:29;;;;;;;9.70;5.60;;;;;;;22.78;49.13;101155.30;107592;1244;70731;-77
2022/07/23 05:43:58;;;;;;;12.20;6.00;;;;;;;22.90;48.90;101148.16;107943;1244;63416;-72
2022/07/23 05:46:27;;;;;;;9.30;5.80;;;;;;;23.02;48.42;101146.83;107902;1244;60500;-72
2022/07/23 05:48:59;;;;;;;9.40;5.80;;;;;;;23.16;48.07;101147.09;107889;1244;62111;-71
2022/07/23 05:51:45;;;;;;;11.30;6.00;;;;;;;23.28;47.61;101145.65;107882;1244;74933;-71
2022/07/23 05:54:15;;;;;;;12.50;5.60;;;;;;;23.41;47.14;101147.51;108003;1243;72083;-71
2022/07/23 05:56:43;;;;;;;8.70;5.20;;;;;;;23.54;46.85;101147.85;107992;1244;69045;-71
2022/07/23 05:59:14;;;;;;;13.90;6.10;;;;;;;23.63;46.32;101145.77;107973;1244;73102;-71
2022/07/23 06:01:43;;;;;;;12.80;6.20;;;;;;;23.67;45.38;101144.70;107919;1244;59037;-73
2022/07/23 06:04:12;;;;;;;13.40;6.20;;;;;;;23.80;45.31;101141.20;108015;1244;61274;-74
2022/07/23 06:06:47;;;;;;;12.10;5.90;;;;;;;23.88;44.99;101140.42;107828;1243;74262;-72
2022/07/23 06:09:16;;;;;;;11.30;6.10;;;;;;;24.03;45.10;101149.05;107818;1244;72262;-81
2022/07/23 06:11:45;;;;;;;13.10;6.00;;;;;;;24.09;44.21;101151.62;107796;1247;59512;-75
2022/07/23 06:14:14;;;;;;;10.30;5.80;;;;;;;24.21;43.86;101155.06;107947;1245;63216;-76
2022/07/23 06:16:53;;;;;;;13.90;6.20;;;;;;;24.37;43.71;101154.11;108000;1244;61341;-76
2022/07/23 06:19:22;;;;;;;9.70;5.60;;;;;;;24.50;43.02;101153.95;107847;1245;60939;-75
2022/07/23 06:21:51;;;;;;;9.60;5.70;;;;;;;24.64;43.40;101153.83;107942;1246;64964;-74
2022/07/23 06:24:21;;;;;;;16.00;6.50;;;;;;;24.77;43.17;101153.86;107674;1247;62632;-75
2022/07/23 06:26:50;;;;;;;10.60;6.30;;;;;;;24.93;42.99;101150.58;107514;1244;69904;-86
2022/07/23 06:29:19;;;;;;;12.00;6.00;;;;;;;25.08;42.89;101155.35;107829;1244;73570;-80
2022/07/23 06:31:48;;;;;;;10.20;5.30;;;;;;;25.21;42.85;101151.58;107954;1244;59682;-83
2022/07/23 06:34:18;;;;;;;12.80;5.70;;;;;;;25.33;41.62;101144.33;108318;1243;61323;-85
2022/07/23 06:36:47;;;;;;;11.10;6.90;;;;;;;25.43;42.00;101142.95;108047;1244;64384;-80
2022/07/23 06:39:16;;;;;;;11.30;6.40;;;;;;;25.61;41.37;101141.01;107986;1243;71554;-90
2022/07/23 06:41:48;;;;;;;9.10;5.40;;;;;;;25.62;40.47;101136.37;108055;1244;71109;-88
2022/07/23 06:44:19;;;;;;;8.80;5.70;;;;;;;25.73;40.76;101136.66;107682;1244;62970;-72
2022/07/23 06:46:49;;;;;;;10.20;5.80;;;;;;;25.89;40.32;101129.16;108073;1244;59594;-83
2022/07/23 06:49:18;;;;;;;13.20;7.20;;;;;;;26.06;40.24;101132.10;107961;1244;59481;-81
2022/07/23 06:51:47;;;;;;;22.10;10.80;;;;;;;26.20;39.72;101130.92;107814;1244;62989;-84
2022/07/23 06:54:17;;;;;;;7.90;4.90;;;;;;;26.25;38.91;101130.69;107748;1244;72257;-83
2022/07/23 06:56:45;;;;;;;12.60;5.20;;;;;;;26.39;38.85;101124.91;108145;1244;61482;-82
2022/07/23 06:59:15;;;;;;;9.40;5.30;;;;;;;26.59;37.60;101122.59;108154;1244;74229;-77
2022/07/23 07:01:43;;;;;;;8.00;4.70;;;;;;;26.79;38.30;101123.23;107830;1244;60828;-77
2022/07/23 07:04:12;;;;;;;8.80;4.30;;;;;;;26.91;36.94;101119.42;107909;1244;59459;-75
2022/07/23 07:06:41;;;;;;;7.10;4.00;;;;;;;26.99;35.60;101114.27;107728;1244;73774;-77
2022/07/23 07:09:10;;;;;;;7.80;3.10;;;;;;;27.09;35.06;101108.64;107785;1244;72725;-72
2022/07/23 07:11:38;;;;;;;8.20;3.80;;;;;;;27.30;35.75;101108.69;108357;1243;70917;-77
2022/07/23 07:14:07;;;;;;;7.10;4.00;;;;;;;27.41;34.34;101108.06;107744;1244;64449;-73
2022/07/23 07:16:36;;;;;;;4.80;3.30;;;;;;;27.56;34.55;101105.48;107667;1246;57959;-75
2022/07/23 07:19:05;;;;;;;5.10;3.70;;;;;;;27.70;34.05;101107.84;107829;1244;59495;-75
2022/07/23 07:21:34;;;;;;;4.70;3.50;;;;;;;27.88;34.78;101107.88;108005;1244;73860;-73
2022/07/23 07:24:06;;;;;;;5.80;4.00;;;;;;;27.98;34.60;101109.72;107905;1244;61627;-75
2022/07/23 07:26:35;;;;;;;5.70;4.30;;;;;;;28.03;34.49;101116.17;107893;1244;59669;-78
2022/07/23 07:29:04;;;;;;;5.50;4.20;;;;;;;28.12;34.79;101116.70;107886;1244;62381;-76
2022/07/23 07:31:33;;;;;;;7.90;4.50;;;;;;;28.19;35.02;101123.13;107996;1244;60346;-76
2022/07/23 07:34:03;;;;;;;7.80;4.30;;;;;;;28.32;35.04;101121.42;107940;1244;60478;-82
2022/07/23 07:36:36;;;;;;;5.80;4.10;;;;;;;28.44;34.91;101120.05;107803;1244;74400;-82
2022/07/23 07:39:06;;;;;;;7.80;4.10;;;;;;;28.61;34.12;101116.03;108103;1244;62742;-77
2022/07/23 07:41:35;;;;;;;6.00;3.90;;;;;;;28.63;33.83;101114.19;108037;1244;69037;-82
2022/07/23 07:44:04;;;;;;;7.80;4.50;;;;;;;28.63;33.93;101112.08;108056;1244;72252;-76
2022/07/23 07:46:33;;;;;;;6.70;4.30;;;;;;;28.69;34.22;101106.61;108134;1243;59110;-73
2022/07/23 07:49:02;;;;;;;8.00;4.20;;;;;;;28.80;33.75;101105.14;107721;1244;59534;-73
2022/07/23 07:51:34;;;;;;;6.30;4.30;;;;;;;28.92;33.34;101101.34;107913;1244;62996;-73
2022/07/23 07:54:04;;;;;;;7.70;4.60;;;;;;;29.00;33.26;101096.73;107474;1247;60790;-74
2022/07/23 07:56:33;;;;;;;8.90;4.40;;;;;;;29.02;32.99;101091.92;107799;1247;60351;-77
2022/07/23 07:59:02;;;;;;;6.90;4.50;;;;;;;29.19;32.96;101096.85;107658;1244;73236;-79
2022/07/23 08:01:32;;;;;;;7.30;4.50;;;;;;;29.38;33.16;101094.40;107977;1244;61104;-79
2022/07/23 08:04:01;;;;;;;9.90;4.80;;;;;;;29.57;32.89;101093.95;107700;1244;61223;-76
2022/07/23 08:06:30;;;;;;;7.20;4.50;;;;;;;29.66;32.55;101090.89;107928;1244;63458;-77
2022/07/23 08:08:59;;;;;;;6.60;4.20;;;;;;;29.75;32.42;101096.21;107918;1244;71594;-76
2022/07/23 08:11:27;;;;;;;7.70;4.60;;;;;;;29.82;32.57;101095.63;108055;1244;69489;-78
2022/07/23 08:13:56;;;;;;;9.10;5.30;;;;;;;29.86;32.47;101088.30;107948;1244;62859;-77
2022/07/23 08:16:28;;;;;;;5.50;4.70;;;;;;;29.95;32.81;101090.38;107688;1244;60346;-77
2022/07/23 08:18:57;;;;;;;5.90;4.50;;;;;;;30.00;32.33;101088.98;107764;1247;58931;-77
2022/07/23 08:21:26;;;;;;;7.30;4.60;;;;;;;30.10;31.46;101085.08;107785;1244;74469;-74
2022/07/23 08:23:54;;;;;;;5.50;4.50;;;;;;;30.09;31.81;101084.92;107659;1244;72734;-74
2022/07/23 08:26:23;;;;;;;7.20;4.20;;;;;;;30.26;31.52;101086.66;107779;1247;59561;-76
2022/07/23 08:28:52;;;;;;;6.40;4.00;;;;;;;30.37;31.53;101081.11;107626;1244;72890;-77
2022/07/23 08:31:22;;;;;;;7.00;4.50;;;;;;;30.41;31.27;101083.85;107468;1246;59587;-79
2022/07/23 08:33:52;;;;;;;9.00;4.90;;;;;;;30.46;31.29;101080.90;107713;1244;59634;-73
2022/07/23 08:36:22;;;;;;;9.10;4.50;;;;;;;30.54;30.99;101079.08;107866;1244;63829;-74
2022/07/23 08:38:52;;;;;;;7.40;4.40;;;;;;;30.52;30.74;101076.19;107748;1246;62453;-75
2022/07/23 08:41:21;;;;;;;5.70;4.30;;;;;;;30.12;31.08;101074.23;107477;1246;61512;-74
2022/07/23 08:43:50;;;;;;;5.80;4.50;;;;;;;30.14;31.25;101080.27;107919;1244;63257;-76
2022/07/23 08:46:20;;;;;;;7.40;4.70;;;;;;;30.16;31.01;101081.98;107729;1244;59587;-76
2022/07/23 08:48:51;;;;;;;7.90;4.90;;;;;;;30.16;30.99;101083.67;107622;1247;59094;-74
2022/07/23 08:51:21;;;;;;;7.70;5.00;;;;;;;30.35;30.56;101085.20;108078;1244;62973;-75
2022/07/23 08:53:52;;;;;;;6.40;4.50;;;;;;;30.43;30.81;101081.20;107567;1244;71780;-77
2022/07/23 08:56:21;;;;;;;7.80;4.90;;;;;;;30.55;30.71;101083.33;107605;1247;60203;-74
2022/07/23 08:58:50;;;;;;;8.90;5.00;;;;;;;30.56;30.12;101084.64;107743;1247;63325;-77
2022/07/23 09:01:19;;;;;;;8.90;4.70;;;;;;;30.48;29.97;101079.80;107757;1244;62145;-75
2022/07/23 09:03:49;;;;;;;6.80;4.90;;;;;;;30.43;29.95;101081.26;107804;1244;60001;-76
2022/07/23 09:06:18;;;;;;;7.40;4.80;;;;;;;30.57;29.98;101083.91;107693;1244;74346;-73
2022/07/23 09:08:47;;;;;;;7.40;4.90;;;;;;;30.57;30.32;101085.58;107661;1244;70933;-77
2022/07/23 09:11:17;;;;;;;7.70;4.50;;;;;;;30.55;30.10;101082.95;107702;1246;69893;-74
2022/07/23 09:13:58;;;;;;;8.90;5.30;;;;;;;30.64;29.98;101081.64;107788;1246;63466;-76
2022/07/23 09:16:31;;;;;;;6.00;4.60;;;;;;;30.86;29.87;101082.27;107797;1245;59637;-76
2022/07/23 09:19:05;;;;;;;8.30;5.00;;;;;;;30.94;29.51;101078.66;107809;1244;59624;-75
2022/07/23 09:21:37;;;;;;;6.50;4.60;;;;;;;31.04;29.49;101078.67;107599;1247;62992;-75
2022/07/23 09:24:11;;;;;;;7.30;4.60;;;;;;;31.09;29.43;101076.08;107962;1244;61483;-76
2022/07/23 09:26:47;;;;;;;10.60;4.40;;;;;;;31.11;29.39;101073.48;107597;1245;69936;-75
2022/07/23 09:29:26;;;;;;;5.40;4.30;;;;;;;31.13;29.12;101074.34;107837;1244;63595;-77
2022/07/23 09:32:02;;;;;;;8.90;5.10;;;;;;;31.22;28.90;101075.13;107642;1244;60852;-75
2022/07/23 09:34:39;;;;;;;8.60;5.40;;;;;;;31.03;29.09;101076.23;107669;1244;61722;-76
2022/07/23 09:37:14;;;;;;;7.10;4.60;;;;;;;31.07;28.74;101076.36;107780;1244;64769;-77
2022/07/23 09:39:46;;;;;;;6.20;4.40;;;;;;;31.32;28.63;101073.72;107883;1247;62042;-73
2022/07/23 09:42:15;;;;;;;7.00;5.20;;;;;;;31.64;28.29;101072.38;107543;1247;60180;-76
2022/07/23 09:44:50;;;;;;;7.80;4.80;;;;;;;31.78;27.73;101064.92;107703;1247;72628;-79
2022/07/23 09:47:24;;;;;;;5.70;4.70;;;;;;;31.85;27.87;101065.27;107764;1244;61846;-75
2022/07/23 09:50:08;;;;;;;6.40;4.10;;;;;;;31.87;27.94;101061.66;107712;1246;60714;-76
2022/07/23 09:52:49;;;;;;;5.50;4.30;;;;;;;32.02;27.67;101059.91;107991;1244;63024;-76
2022/07/23 09:55:18;;;;;;;7.60;4.60;;;;;;;32.17;27.64;101061.71;108015;1244;72446;-78
2022/07/23 09:57:52;;;;;;;6.90;4.40;;;;;;;32.02;27.51;101058.39;107842;1244;59671;-79
2022/07/23 10:00:23;;;;;;;7.70;4.80;;;;;;;31.72;27.63;101058.55;107993;1244;62272;-78
2022/07/23 10:02:52;;;;;;;5.60;4.90;;;;;;;31.73;27.54;101054.20;107653;1244;61127;-75
2022/07/23 10:05:31;;;;;;;9.50;5.00;;;;;;;31.85;27.56;101053.02;107678;1243;60015;-75
2022/07/23 10:08:20;;;;;;;5.80;4.20;;;;;;;32.08;27.28;101048.56;107674;1246;64405;-75
2022/07/23 10:11:40;;;;;;;6.10;4.20;;;;;;;32.09;27.13;101048.10;107962;1244;70609;-75
2022/07/23 10:14:20;;;;;;;5.80;4.60;;;;;;;32.02;27.21;101046.39;107831;1246;60480;-76
2022/07/23 10:16:56;;;;;;;6.40;4.00;;;;;;;32.25;27.59;101045.38;107705;1244;72806;-76
2022/07/23 10:19:25;;;;;;;8.80;4.70;;;;;;;32.46;27.01;101034.09;107659;1244;61385;-78
2022/07/23 10:22:03;;;;;;;5.70;4.00;;;;;;;32.65;26.71;101032.84;107769;1244;59563;-77
2022/07/23 10:25:16;;;;;;;6.40;4.70;;;;;;;32.71;26.29;101031.04;107802;1244;64063;-76
2022/07/23 10:28:55;;;;;;;9.10;4.70;;;;;;;32.79;26.09;101028.28;107762;1244;63308;-78
2022/07/23 10:31:41;;;;;;;7.90;4.60;;;;;;;32.99;25.70;101025.69;107813;1244;59858;-78
2022/07/23 10:34:55;;;;;;;5.50;4.30;;;;;;;33.09;25.45;101019.80;107980;1244;63658;-75
2022/07/23 10:37:38;;;;;;;4.70;4.20;;;;;;;33.25;25.06;101018.73;107876;1244;58433;-74
2022/07/23 10:40:13;;;;;;;7.40;4.00;;;;;;;33.66;25.10;101018.14;108035;1244;59522;-76
2022/07/23 10:42:41;;;;;;;6.30;4.40;;;;;;;33.78;24.37;101015.01;107959;1244;63791;-73
2022/07/23 10:45:37;;;;;;;6.40;4.40;;;;;;;33.45;24.34;101011.50;107927;1244;61603;-78
2022/07/23 10:48:16;;;;;;;5.50;4.00;;;;;;;33.81;24.29;101011.09;107780;1244;60073;-75
2022/07/23 10:51:13;;;;;;;6.20;4.20;;;;;;;34.15;24.12;101006.05;107608;1244;74700;-78
2022/07/23 10:53:51;;;;;;;6.70;3.90;;;;;;;34.19;23.87;101000.77;108030;1244;59680;-80
2022/07/23 10:57:06;;;;;;;4.60;3.80;;;;;;;34.33;23.29;100996.05;107980;1244;57749;-80
2022/07/23 11:00:00;;;;;;;6.30;3.90;;;;;;;34.60;22.85;100996.05;108010;1244;62860;-80
2022/07/23 11:02:31;;;;;;;5.50;4.20;;;;;;;35.12;22.70;100985.58;107641;1247;72297;-75
2022/07/23 11:05:05;;;;;;;5.20;4.00;;;;;;;35.61;22.25;100986.39;107903;1244;59618;-76
2022/07/23 11:07:36;;;;;;;5.40;3.70;;;;;;;36.07;21.30;100988.40;107815;1247;63941;-75
2022/07/23 11:10:06;;;;;;;;;;;;;;;36.23;21.07;100985.88;107633;1247;60549;-78
2022/07/23 11:12:36;;;;;;;5.10;4.30;;;;;;;36.61;20.95;100982.91;107788;1246;59566;-77
2022/07/23 11:15:14;;;;;;;4.60;3.80;;;;;;;36.74;20.46;100987.20;107840;1246;62967;-78
2022/07/23 11:17:56;;;;;;;6.10;3.70;;;;;;;36.60;20.53;100984.55;107823;1244;72340;-77
2022/07/23 11:20:24;;;;;;;6.50;4.10;;;;;;;36.50;20.21;100974.23;107995;1244;70286;-76
2022/07/23 11:22:58;;;;;;;6.40;4.00;;;;;;;36.40;20.37;100979.75;107697;1247;63668;-77
2022/07/23 11:25:28;;;;;;;5.20;3.50;;;;;;;36.12;20.89;100981.55;107620;1244;59646;-75
2022/07/23 11:28:20;;;;;;;7.10;3.60;;;;;;;36.24;20.42;100979.84;107772;1244;60350;-81
2022/07/23 11:30:49;;;;;;;4.60;3.70;;;;;;;35.86;21.15;100977.54;107751;1244;64872;-76
2022/07/23 11:33:21;;;;;;;5.70;3.70;;;;;;;36.14;20.88;100974.69;108017;1244;61445;-77
2022/07/23 11:36:02;;;;;;;5.70;3.80;;;;;;;36.31;20.65;100967.98;107788;1245;61260;-75